Time;durP1;ratioP1;P1;durP2;ratioP2;P2;SDS_P1;SDS_P2;PMS_P1;PMS_P2;Temp;Humidity;BMP_temperature;BMP_pressure;BME280_temperature;BME280_humidity;BME280_pressure;Samples;Min_cycle;Max_cycle;Signal;HPM_P1;HPM_P2
2021/11/07 00:04:49;;;;;;;34.72;8.90;;;;;;;;;;4914140;29;20054;-74
2021/11/07 00:07:29;;;;;;;31.77;8.02;;;;;;;;;;4915396;29;20060;-74
2021/11/07 00:10:03;;;;;;;29.60;7.75;;;;;;;;;;4915541;29;20086;-76
2021/11/07 00:12:38;;;;;;;29.42;8.48;;;;;;;;;;4915563;29;20139;-74
2021/11/07 00:15:07;;;;;;;34.10;8.35;;;;;;;;;;4915428;29;20044;-79
2021/11/07 00:17:35;;;;;;;36.95;7.93;;;;;;;;;;4915159;29;20490;-76
2021/11/07 00:20:09;;;;;;;35.33;8.70;;;;;;;;;;4914999;29;20048;-79
2021/11/07 00:22:53;;;;;;;38.70;8.43;;;;;;;;;;4915120;29;20579;-80
2021/11/07 00:25:29;;;;;;;38.20;9.10;;;;;;;;;;4915461;29;20131;-79
2021/11/07 00:28:01;;;;;;;36.60;9.32;;;;;;;;;;4915067;29;20054;-79
2021/11/07 00:38:22;;;;;;;36.25;9.73;;;;;;;;;;4954170;28;20133;-76
2021/11/07 00:41:15;;;;;;;40.53;9.20;;;;;;;;;;4957711;28;20049;-76
2021/11/07 00:43:52;;;;;;;37.33;9.75;;;;;;;;;;4974618;28;20122;-76
2021/11/07 00:46:40;;;;;;;30.77;8.65;;;;;;;;;;4956885;28;20459;-79
2021/11/07 00:49:24;;;;;;;35.67;9.48;;;;;;;;;;4974604;28;20380;-79
2021/11/07 00:52:19;;;;;;;40.85;10.48;;;;;;;;;;4956986;28;20074;-76
2021/11/07 01:00:22;;;;;;;37.88;9.23;;;;;;;;;;4974337;28;20039;-75
2021/11/07 01:02:57;;;;;;;42.78;9.70;;;;;;;;;;4973861;28;20049;-75
2021/11/07 01:05:27;;;;;;;40.97;9.63;;;;;;;;;;4957487;28;20035;-76
2021/11/07 01:07:55;;;;;;;43.40;9.55;;;;;;;;;;4974315;28;20460;-76
2021/11/07 01:10:24;;;;;;;30.95;8.75;;;;;;;;;;4974307;28;20043;-76
2021/11/07 01:12:52;;;;;;;39.38;8.98;;;;;;;;;;4974284;28;20046;-74
2021/11/07 01:15:19;;;;;;;30.98;9.30;;;;;;;;;;4956905;28;20043;-76
2021/11/07 01:17:47;;;;;;;35.60;9.88;;;;;;;;;;4974179;28;20511;-74
2021/11/07 01:20:17;;;;;;;42.05;10.05;;;;;;;;;;4975594;28;20050;-74
2021/11/07 01:25:16;;;;;;;40.33;10.43;;;;;;;;;;4978351;28;20073;-76
2021/11/07 01:27:44;;;;;;;35.60;9.52;;;;;;;;;;4977758;28;20038;-74
2021/11/07 01:30:17;;;;;;;39.58;9.15;;;;;;;;;;4977629;28;20038;-74
2021/11/07 01:32:51;;;;;;;35.13;9.18;;;;;;;;;;4977601;28;20469;-79
2021/11/07 01:40:40;;;;;;;41.92;9.43;;;;;;;;;;4977937;28;20105;-74
2021/11/07 01:43:08;;;;;;;42.95;10.20;;;;;;;;;;4976352;28;20548;-74
2021/11/07 01:45:42;;;;;;;39.45;10.13;;;;;;;;;;4976984;28;20122;-74
2021/11/07 01:50:42;;;;;;;42.78;10.15;;;;;;;;;;4977257;28;20125;-74
2021/11/07 01:53:29;;;;;;;43.13;9.57;;;;;;;;;;4960648;28;20468;-74
2021/11/07 01:55:58;;;;;;;39.53;9.90;;;;;;;;;;4977680;28;20463;-74
2021/11/07 01:58:28;;;;;;;46.78;11.55;;;;;;;;;;4960640;28;20133;-79
2021/11/07 02:00:55;;;;;;;36.00;9.90;;;;;;;;;;4964823;28;20509;-79
2021/11/07 02:03:23;;;;;;;38.72;10.20;;;;;;;;;;4972110;28;20046;-79
2021/11/07 02:05:52;;;;;;;39.13;10.10;;;;;;;;;;4996350;28;20066;-79
2021/11/07 02:08:20;;;;;;;38.30;9.60;;;;;;;;;;4979601;28;20042;-79
2021/11/07 02:10:49;;;;;;;38.28;9.80;;;;;;;;;;4979344;28;20096;-74
2021/11/07 02:13:17;;;;;;;40.00;10.52;;;;;;;;;;4996510;28;20054;-76
2021/11/07 02:15:45;;;;;;;41.40;9.95;;;;;;;;;;4978697;28;20054;-79
2021/11/07 02:18:15;;;;;;;41.83;9.55;;;;;;;;;;4979126;28;20104;-79
2021/11/07 02:20:43;;;;;;;37.30;9.32;;;;;;;;;;4967388;28;20149;-74
2021/11/07 02:23:13;;;;;;;36.97;9.60;;;;;;;;;;4997111;28;20039;-76
2021/11/07 02:25:42;;;;;;;44.33;10.18;;;;;;;;;;4995643;28;20057;-79
2021/11/07 02:28:22;;;;;;;41.80;9.38;;;;;;;;;;4996046;28;20041;-74
2021/11/07 02:30:50;;;;;;;43.78;10.07;;;;;;;;;;4994482;28;20046;-74
2021/11/07 02:33:17;;;;;;;43.95;9.25;;;;;;;;;;4996352;28;20053;-76
2021/11/07 02:35:45;;;;;;;41.88;9.27;;;;;;;;;;4995055;28;20130;-76
2021/11/07 02:38:12;;;;;;;38.30;8.60;;;;;;;;;;4993187;28;20042;-74
2021/11/07 02:40:40;;;;;;;42.72;10.52;;;;;;;;;;4995601;28;20049;-74
2021/11/07 02:43:07;;;;;;;41.53;10.02;;;;;;;;;;4994160;28;20050;-79
2021/11/07 02:45:35;;;;;;;42.35;9.65;;;;;;;;;;4995576;28;20042;-74
2021/11/07 02:48:03;;;;;;;39.65;9.00;;;;;;;;;;4994811;28;20057;-74
2021/11/07 02:50:30;;;;;;;33.92;8.63;;;;;;;;;;4995926;28;20042;-79
2021/11/07 02:52:58;;;;;;;43.50;9.15;;;;;;;;;;4994384;28;20046;-74
2021/11/07 02:55:26;;;;;;;34.65;9.40;;;;;;;;;;4995832;28;20039;-74
2021/11/07 02:57:54;;;;;;;41.13;10.18;;;;;;;;;;4995538;28;20041;-76
2021/11/07 03:00:23;;;;;;;41.78;8.45;;;;;;;;;;4978676;28;20515;-74
2021/11/07 03:02:52;;;;;;;42.15;9.73;;;;;;;;;;4995091;28;20060;-74
2021/11/07 03:05:20;;;;;;;37.25;9.43;;;;;;;;;;4994024;28;20496;-74
2021/11/07 03:07:47;;;;;;;27.92;9.35;;;;;;;;;;4994608;28;20050;-75
2021/11/07 03:10:17;;;;;;;37.00;8.20;;;;;;;;;;4995647;28;20047;-74
2021/11/07 03:12:45;;;;;;;39.80;9.15;;;;;;;;;;4993818;28;20125;-75
2021/11/07 03:15:14;;;;;;;47.35;9.38;;;;;;;;;;4994317;28;20420;-74
2021/11/07 03:17:42;;;;;;;38.45;8.70;;;;;;;;;;4995314;28;20038;-74
2021/11/07 03:20:10;;;;;;;33.53;8.52;;;;;;;;;;4995048;28;20070;-75
2021/11/07 03:22:38;;;;;;;36.22;8.23;;;;;;;;;;4996346;28;20045;-76
2021/11/07 03:25:06;;;;;;;35.53;8.95;;;;;;;;;;4995268;28;20043;-79
2021/11/07 03:27:39;;;;;;;38.65;9.43;;;;;;;;;;4995450;28;20105;-76
2021/11/07 03:30:14;;;;;;;32.85;9.20;;;;;;;;;;4977514;28;20047;-74
2021/11/07 03:32:45;;;;;;;31.15;8.73;;;;;;;;;;4995347;28;20081;-76
2021/11/07 03:35:17;;;;;;;32.47;8.70;;;;;;;;;;4977340;28;20050;-74
2021/11/07 03:37:57;;;;;;;37.10;8.82;;;;;;;;;;4995211;28;20053;-76
2021/11/07 03:40:26;;;;;;;37.85;9.50;;;;;;;;;;4995140;28;20050;-74
2021/11/07 03:42:56;;;;;;;44.65;10.02;;;;;;;;;;4960528;28;20056;-79
2021/11/07 03:45:23;;;;;;;31.25;8.73;;;;;;;;;;4994705;28;20038;-74
2021/11/07 03:47:51;;;;;;;44.15;9.73;;;;;;;;;;4994820;28;20038;-74
2021/11/07 03:50:20;;;;;;;36.38;9.63;;;;;;;;;;4994909;28;20043;-74
2021/11/07 03:52:48;;;;;;;37.55;8.75;;;;;;;;;;4994663;28;20049;-75
2021/11/07 03:55:17;;;;;;;36.45;8.35;;;;;;;;;;4977370;28;20049;-76
2021/11/07 03:57:45;;;;;;;36.55;8.88;;;;;;;;;;4994917;28;20042;-75
2021/11/07 04:00:14;;;;;;;32.67;8.45;;;;;;;;;;4977253;28;20054;-75
2021/11/07 04:02:42;;;;;;;33.60;8.07;;;;;;;;;;4995381;28;20411;-74
2021/11/07 04:05:10;;;;;;;34.63;8.18;;;;;;;;;;4994661;28;20042;-74
2021/11/07 04:07:38;;;;;;;32.92;7.43;;;;;;;;;;4994498;28;20038;-74
2021/11/07 04:10:07;;;;;;;31.65;8.65;;;;;;;;;;4960901;28;20137;-79
2021/11/07 04:12:34;;;;;;;31.15;8.43;;;;;;;;;;4994358;28;20129;-74
2021/11/07 04:15:03;;;;;;;34.65;8.32;;;;;;;;;;4976745;28;20046;-79
2021/11/07 04:17:31;;;;;;;30.42;7.93;;;;;;;;;;4976566;28;20050;-74
2021/11/07 04:19:59;;;;;;;30.08;8.32;;;;;;;;;;4993923;28;20050;-74
2021/11/07 04:22:26;;;;;;;26.60;7.63;;;;;;;;;;4993844;28;20046;-74
2021/11/07 04:24:54;;;;;;;33.65;8.05;;;;;;;;;;4993595;28;20045;-76
2021/11/07 04:27:23;;;;;;;24.88;7.43;;;;;;;;;;4976706;28;20385;-76
2021/11/07 04:29:53;;;;;;;32.10;7.72;;;;;;;;;;4960802;28;20124;-79
2021/11/07 04:32:20;;;;;;;32.70;8.07;;;;;;;;;;4976649;28;20523;-74
2021/11/07 04:34:49;;;;;;;21.27;7.82;;;;;;;;;;4976491;28;20054;-74
2021/11/07 04:37:18;;;;;;;39.03;8.60;;;;;;;;;;4976687;28;20050;-75
2021/11/07 04:39:46;;;;;;;36.88;8.93;;;;;;;;;;4976066;28;20166;-74
2021/11/07 04:42:15;;;;;;;33.80;8.20;;;;;;;;;;4961329;28;20050;-74
2021/11/07 04:44:42;;;;;;;32.92;7.65;;;;;;;;;;4993873;28;20048;-74
2021/11/07 04:47:11;;;;;;;30.80;7.95;;;;;;;;;;4976992;28;20044;-76
2021/11/07 04:49:38;;;;;;;33.83;8.40;;;;;;;;;;4960793;28;20047;-79
2021/11/07 04:52:07;;;;;;;34.58;7.60;;;;;;;;;;4993725;28;20045;-74
2021/11/07 04:54:34;;;;;;;32.35;7.90;;;;;;;;;;4975111;28;20050;-76
2021/11/07 04:57:03;;;;;;;26.60;7.10;;;;;;;;;;4993766;28;20466;-76
2021/11/07 04:59:30;;;;;;;28.05;7.72;;;;;;;;;;4976559;28;20052;-79
2021/11/07 05:02:02;;;;;;;29.08;7.20;;;;;;;;;;4976468;28;20042;-74
2021/11/07 05:04:29;;;;;;;28.83;7.15;;;;;;;;;;4992161;28;20133;-76
2021/11/07 05:06:59;;;;;;;28.73;8.38;;;;;;;;;;4976162;28;20043;-74
2021/11/07 05:09:28;;;;;;;23.35;7.00;;;;;;;;;;4975567;28;20492;-75
2021/11/07 05:11:58;;;;;;;30.88;8.38;;;;;;;;;;4993657;28;20122;-76
2021/11/07 05:14:25;;;;;;;34.20;7.90;;;;;;;;;;4994550;28;20046;-76
2021/11/07 05:16:54;;;;;;;30.45;7.95;;;;;;;;;;4993631;28;20053;-76
2021/11/07 05:19:21;;;;;;;32.92;8.40;;;;;;;;;;4993871;28;20053;-74
2021/11/07 05:21:52;;;;;;;33.58;7.75;;;;;;;;;;4993573;28;20046;-76
2021/11/07 05:24:19;;;;;;;31.00;8.35;;;;;;;;;;4993393;28;20061;-76
2021/11/07 05:26:47;;;;;;;35.90;8.13;;;;;;;;;;4993444;28;20496;-74
2021/11/07 05:29:15;;;;;;;26.20;7.80;;;;;;;;;;4993602;28;20096;-79
2021/11/07 05:31:43;;;;;;;32.97;7.72;;;;;;;;;;4993535;28;20385;-78
2021/11/07 05:34:10;;;;;;;25.30;7.05;;;;;;;;;;4993313;28;20042;-75
2021/11/07 05:36:41;;;;;;;32.75;7.82;;;;;;;;;;4993411;28;20046;-76
2021/11/07 05:39:08;;;;;;;30.63;7.53;;;;;;;;;;4993344;28;20117;-79
2021/11/07 05:41:36;;;;;;;31.23;7.60;;;;;;;;;;4960921;28;20053;-76
2021/11/07 05:44:05;;;;;;;28.52;6.85;;;;;;;;;;4990905;28;20048;-80
2021/11/07 05:46:32;;;;;;;31.45;7.60;;;;;;;;;;4972764;28;20042;-75
2021/11/07 05:49:04;;;;;;;27.10;7.70;;;;;;;;;;4975567;28;20467;-75
2021/11/07 05:51:32;;;;;;;32.42;7.70;;;;;;;;;;4975659;28;20114;-76
2021/11/07 05:53:59;;;;;;;27.85;7.40;;;;;;;;;;4993535;28;20441;-80
2021/11/07 05:56:27;;;;;;;32.22;8.32;;;;;;;;;;4993432;28;20046;-80
2021/11/07 05:58:55;;;;;;;30.50;7.97;;;;;;;;;;4975693;28;20051;-76
2021/11/07 06:01:22;;;;;;;28.95;7.78;;;;;;;;;;4976230;28;20079;-74
2021/11/07 06:03:50;;;;;;;36.30;7.55;;;;;;;;;;4992947;28;20074;-75
2021/11/07 06:06:17;;;;;;;27.63;8.07;;;;;;;;;;4994643;28;20121;-75
2021/11/07 06:08:45;;;;;;;29.10;7.80;;;;;;;;;;4963189;28;20046;-75
2021/11/07 06:11:12;;;;;;;26.83;7.43;;;;;;;;;;4979297;28;20133;-74
2021/11/07 06:13:40;;;;;;;21.60;7.03;;;;;;;;;;4996541;28;20117;-80
2021/11/07 06:16:08;;;;;;;29.55;7.72;;;;;;;;;;4963386;28;20057;-80
2021/11/07 06:18:35;;;;;;;27.90;8.13;;;;;;;;;;4979206;28;20492;-79
2021/11/07 06:21:04;;;;;;;30.15;8.30;;;;;;;;;;4996603;28;20057;-74
2021/11/07 06:23:33;;;;;;;25.35;7.97;;;;;;;;;;4996591;28;20057;-74
2021/11/07 06:26:01;;;;;;;28.67;7.95;;;;;;;;;;4996303;28;20047;-79
2021/11/07 06:28:29;;;;;;;25.15;7.70;;;;;;;;;;4996403;28;20490;-75
2021/11/07 06:31:04;;;;;;;21.40;7.18;;;;;;;;;;4978884;28;20133;-76
2021/11/07 06:33:32;;;;;;;20.25;6.75;;;;;;;;;;4996509;28;20046;-80
2021/11/07 06:36:01;;;;;;;27.70;7.03;;;;;;;;;;4996299;28;20049;-75
2021/11/07 06:38:29;;;;;;;31.48;6.72;;;;;;;;;;4996142;28;20126;-78
2021/11/07 06:40:58;;;;;;;30.30;6.28;;;;;;;;;;4995950;28;20068;-79
2021/11/07 06:43:26;;;;;;;20.42;5.35;;;;;;;;;;4996240;28;20034;-74
2021/11/07 06:45:54;;;;;;;24.33;6.00;;;;;;;;;;4995944;28;20048;-74
2021/11/07 06:48:22;;;;;;;24.33;6.28;;;;;;;;;;4979126;28;20046;-80
2021/11/07 06:50:51;;;;;;;17.80;5.53;;;;;;;;;;4995897;28;20038;-76
2021/11/07 06:53:19;;;;;;;25.65;6.43;;;;;;;;;;4978569;28;20503;-76
2021/11/07 06:55:47;;;;;;;25.45;6.82;;;;;;;;;;4978937;28;20050;-80
2021/11/07 06:58:16;;;;;;;26.20;6.93;;;;;;;;;;4962825;28;20050;-75
2021/11/07 07:00:43;;;;;;;20.52;6.45;;;;;;;;;;4995587;28;20558;-74
2021/11/07 07:03:11;;;;;;;21.85;7.18;;;;;;;;;;4995619;28;20043;-78
2021/11/07 07:05:38;;;;;;;26.70;6.60;;;;;;;;;;4995526;28;20042;-75
2021/11/07 07:08:13;;;;;;;19.23;6.30;;;;;;;;;;4995861;28;20068;-77
2021/11/07 07:10:56;;;;;;;23.15;5.47;;;;;;;;;;4995538;28;20407;-81
2021/11/07 07:13:31;;;;;;;18.67;5.47;;;;;;;;;;4995742;28;20073;-74
2021/11/07 07:29:30;;;;;;;25.60;5.72;;;;;;;;;;4995292;28;20041;-74
2021/11/07 07:32:24;;;;;;;17.63;5.40;;;;;;;;;;4995127;28;20470;-74
2021/11/07 07:34:54;;;;;;;19.30;6.68;;;;;;;;;;4993972;28;20054;-74
2021/11/07 07:37:22;;;;;;;21.92;5.53;;;;;;;;;;4994156;28;20052;-79
2021/11/07 07:39:49;;;;;;;16.85;5.35;;;;;;;;;;4993859;28;20434;-80
2021/11/07 07:42:18;;;;;;;24.15;6.22;;;;;;;;;;4993733;28;20049;-74
2021/11/07 07:44:49;;;;;;;19.52;5.88;;;;;;;;;;4992930;28;20043;-75
2021/11/07 07:47:17;;;;;;;17.40;5.47;;;;;;;;;;4993733;28;20042;-75
2021/11/07 07:49:47;;;;;;;29.88;6.60;;;;;;;;;;4993550;28;20121;-75
2021/11/07 07:52:20;;;;;;;27.05;5.53;;;;;;;;;;4995439;28;20046;-75
2021/11/07 07:54:48;;;;;;;21.17;5.40;;;;;;;;;;4994881;28;20042;-75
2021/11/07 07:57:16;;;;;;;21.17;5.40;;;;;;;;;;4995104;28;20043;-74
2021/11/07 07:59:43;;;;;;;25.23;6.15;;;;;;;;;;4990565;28;21614;-80
2021/11/07 08:02:11;;;;;;;23.02;5.97;;;;;;;;;;4974967;28;20074;-82
2021/11/07 08:04:40;;;;;;;20.63;5.93;;;;;;;;;;4990573;28;20048;-80
2021/11/07 08:07:07;;;;;;;24.33;6.10;;;;;;;;;;4995894;28;20058;-77
2021/11/07 08:09:35;;;;;;;17.45;5.43;;;;;;;;;;4996960;28;20054;-80
2021/11/07 08:12:33;;;;;;;18.90;5.32;;;;;;;;;;4993886;28;20034;-80
2021/11/07 08:15:03;;;;;;;20.20;6.20;;;;;;;;;;4984251;28;20046;-74
2021/11/07 08:17:31;;;;;;;25.85;6.15;;;;;;;;;;4992675;28;20077;-83
2021/11/07 08:19:59;;;;;;;17.77;5.38;;;;;;;;;;4987415;23;20059;-75
2021/11/07 08:22:27;;;;;;;21.67;5.47;;;;;;;;;;4966852;28;20062;-74
2021/11/07 08:24:55;;;;;;;16.92;5.05;;;;;;;;;;4954081;28;20065;-74
2021/11/07 08:27:23;;;;;;;23.90;6.13;;;;;;;;;;4980346;28;20408;-79
2021/11/07 08:29:56;;;;;;;16.38;5.32;;;;;;;;;;4977189;28;20043;-83
2021/11/07 08:32:25;;;;;;;20.80;4.93;;;;;;;;;;4974287;28;20049;-73
2021/11/07 08:34:53;;;;;;;14.43;4.35;;;;;;;;;;4957190;28;20053;-74
2021/11/07 08:37:29;;;;;;;20.67;5.18;;;;;;;;;;4973356;28;20507;-81
2021/11/07 08:40:00;;;;;;;20.88;5.90;;;;;;;;;;4958160;28;20047;-74
2021/11/07 09:05:16;;;;;;;15.68;4.78;;;;;;;;;;4935084;28;20145;-74
2021/11/07 09:07:25;;;;;;;19.15;6.82;;;;;;;;;;4946609;28;20046;-74
2021/11/07 09:10:01;;;;;;;23.60;5.38;;;;;;;;;;4957073;28;20085;-82
2021/11/07 09:12:29;;;;;;;21.25;5.72;;;;;;;;;;4956787;28;20043;-76
2021/11/07 09:14:57;;;;;;;17.10;5.18;;;;;;;;;;4974177;28;20504;-73
2021/11/07 09:17:24;;;;;;;25.40;5.85;;;;;;;;;;4974149;28;20049;-73
2021/11/07 09:19:55;;;;;;;26.75;5.47;;;;;;;;;;4953787;29;20055;-76
2021/11/07 09:22:38;;;;;;;16.70;5.07;;;;;;;;;;4953672;29;20570;-75
2021/11/07 09:25:16;;;;;;;21.58;5.45;;;;;;;;;;4954606;28;20082;-76
2021/11/07 09:27:48;;;;;;;13.63;4.90;;;;;;;;;;4953417;29;20086;-73
2021/11/07 09:35:35;;;;;;;22.90;6.07;;;;;;;;;;4954764;28;20047;-74
2021/11/07 09:38:19;;;;;;;19.13;5.70;;;;;;;;;;4954877;28;20059;-75
2021/11/07 09:40:59;;;;;;;18.92;5.78;;;;;;;;;;4953741;28;20043;-75
2021/11/07 09:43:49;;;;;;;25.95;5.80;;;;;;;;;;4958260;28;20070;-74
2021/11/07 09:49:03;;;;;;;18.73;5.65;;;;;;;;;;4958339;28;20483;-77
2021/11/07 09:51:34;;;;;;;28.08;5.78;;;;;;;;;;4957001;29;20047;-74
2021/11/07 09:54:02;;;;;;;19.88;5.38;;;;;;;;;;4958310;28;20134;-77
2021/11/07 09:56:30;;;;;;;18.55;5.32;;;;;;;;;;4958572;28;20047;-75
2021/11/07 09:58:59;;;;;;;17.98;5.43;;;;;;;;;;4958388;28;20396;-73
2021/11/07 10:01:29;;;;;;;19.40;5.82;;;;;;;;;;4958353;28;20050;-73
2021/11/07 10:03:59;;;;;;;13.90;5.55;;;;;;;;;;4956659;29;20058;-72
2021/11/07 10:06:28;;;;;;;24.88;6.28;;;;;;;;;;4957987;28;20047;-76
2021/11/07 10:08:56;;;;;;;24.00;6.28;;;;;;;;;;4958169;28;20039;-74
2021/11/07 10:11:42;;;;;;;24.98;6.63;;;;;;;;;;4972246;28;20039;-77
2021/11/07 10:14:20;;;;;;;23.92;6.40;;;;;;;;;;4938050;29;20134;-73
2021/11/07 10:16:51;;;;;;;16.95;5.80;;;;;;;;;;4955520;29;20075;-76
2021/11/07 10:19:26;;;;;;;21.73;6.20;;;;;;;;;;4940705;29;20456;-73
2021/11/07 10:21:58;;;;;;;27.90;6.38;;;;;;;;;;4956477;29;20476;-74
2021/11/07 10:24:31;;;;;;;21.83;6.13;;;;;;;;;;4957353;29;20043;-73
2021/11/07 10:27:02;;;;;;;24.15;6.35;;;;;;;;;;4957558;28;20047;-77
2021/11/07 10:29:30;;;;;;;25.10;6.20;;;;;;;;;;4956365;29;20074;-76
2021/11/07 10:32:15;;;;;;;26.80;6.43;;;;;;;;;;4957617;29;20071;-73
2021/11/07 10:41:02;;;;;;;21.35;5.32;;;;;;;;;;4957438;28;20641;-76
2021/11/07 10:52:11;;;;;;;20.20;5.63;;;;;;;;;;4957117;28;20039;-73
2021/11/07 10:54:42;;;;;;;23.83;5.35;;;;;;;;;;4956979;29;20111;-77
2021/11/07 10:57:18;;;;;;;23.05;5.35;;;;;;;;;;4957175;28;20130;-75
2021/11/07 11:00:05;;;;;;;22.48;5.22;;;;;;;;;;4956773;28;20043;-75
2021/11/07 11:02:34;;;;;;;20.02;5.03;;;;;;;;;;4956961;28;20511;-73
2021/11/07 11:05:03;;;;;;;26.45;5.50;;;;;;;;;;4956524;29;20515;-73
2021/11/07 11:07:31;;;;;;;18.60;4.95;;;;;;;;;;4956811;28;20548;-75
2021/11/07 11:10:14;;;;;;;17.05;4.72;;;;;;;;;;4956908;28;20098;-75
2021/11/07 11:13:10;;;;;;;15.23;4.70;;;;;;;;;;4956754;29;20489;-73
2021/11/07 11:15:49;;;;;;;16.75;5.35;;;;;;;;;;4956760;28;20043;-76
2021/11/07 11:43:14;;;;;;;16.90;4.40;;;;;;;;;;4860000;29;20460;-75
2021/11/07 11:45:44;;;;;;;19.10;5.35;;;;;;;;;;4906762;29;20151;-77
2021/11/07 11:48:24;;;;;;;20.05;5.28;;;;;;;;;;4916043;29;20055;-75
2021/11/07 11:56:21;;;;;;;17.65;5.65;;;;;;;;;;4956183;29;20067;-75
2021/11/07 11:58:58;;;;;;;15.85;4.57;;;;;;;;;;4956108;28;20116;-76
2021/11/07 12:01:32;;;;;;;20.83;4.72;;;;;;;;;;4956516;28;20485;-73
2021/11/07 12:04:32;;;;;;;18.88;4.95;;;;;;;;;;4955490;28;20130;-76
2021/11/07 12:07:21;;;;;;;19.63;4.60;;;;;;;;;;4955601;29;20131;-75
2021/11/07 12:13:08;;;;;;;20.10;4.72;;;;;;;;;;4955635;28;20066;-72
2021/11/07 12:15:36;;;;;;;14.18;5.05;;;;;;;;;;4952916;29;20139;-72
2021/11/07 12:18:05;;;;;;;17.58;4.72;;;;;;;;;;4954726;29;20047;-76
2021/11/07 12:20:36;;;;;;;26.50;5.63;;;;;;;;;;4954423;29;20389;-72
2021/11/07 12:23:26;;;;;;;19.35;4.97;;;;;;;;;;4955775;29;20090;-76
2021/11/07 12:26:00;;;;;;;15.50;5.28;;;;;;;;;;4939605;29;20074;-73
2021/11/07 12:28:40;;;;;;;24.80;5.82;;;;;;;;;;4936153;29;20044;-73
2021/11/07 12:31:08;;;;;;;14.90;4.45;;;;;;;;;;4935107;29;20048;-73
2021/11/07 12:34:00;;;;;;;18.25;4.68;;;;;;;;;;4935978;29;20038;-74
2021/11/07 12:41:45;;;;;;;19.63;5.20;;;;;;;;;;4935989;29;20052;-76
2021/11/07 12:44:21;;;;;;;19.40;4.97;;;;;;;;;;4935770;29;20043;-75
2021/11/07 12:46:58;;;;;;;21.73;5.68;;;;;;;;;;4934664;29;20039;-77
2021/11/07 12:49:28;;;;;;;19.73;4.82;;;;;;;;;;4935841;29;20042;-76
2021/11/07 12:51:58;;;;;;;18.25;5.00;;;;;;;;;;4934560;29;20047;-73
2021/11/07 12:54:25;;;;;;;18.73;5.15;;;;;;;;;;4935705;29;20050;-73
2021/11/07 12:57:12;;;;;;;18.67;5.78;;;;;;;;;;4934422;29;20048;-74
2021/11/07 12:59:41;;;;;;;18.63;5.47;;;;;;;;;;4935967;29;20131;-73
2021/11/07 13:02:22;;;;;;;20.00;5.00;;;;;;;;;;4934586;29;20051;-73
2021/11/07 13:05:07;;;;;;;17.85;5.43;;;;;;;;;;4935727;29;20465;-73
2021/11/07 13:07:35;;;;;;;24.52;6.00;;;;;;;;;;4933872;29;20143;-74
2021/11/07 13:10:09;;;;;;;19.55;5.20;;;;;;;;;;4918750;29;20051;-74
2021/11/07 13:12:40;;;;;;;27.00;5.40;;;;;;;;;;4935775;29;20050;-76
2021/11/07 13:28:46;;;;;;;18.25;5.75;;;;;;;;;;4916365;29;20447;-76
2021/11/07 13:31:21;;;;;;;21.67;5.80;;;;;;;;;;4916813;29;20075;-73
2021/11/07 13:33:49;;;;;;;19.58;5.25;;;;;;;;;;4916496;29;20103;-73
2021/11/07 13:36:19;;;;;;;21.27;5.65;;;;;;;;;;4914953;29;20052;-76
2021/11/07 13:38:49;;;;;;;21.70;5.65;;;;;;;;;;4915598;29;20055;-77
2021/11/07 13:41:18;;;;;;;16.55;5.38;;;;;;;;;;4916474;29;20573;-76
2021/11/07 13:43:51;;;;;;;17.25;5.15;;;;;;;;;;4915396;29;20071;-74
2021/11/07 13:46:19;;;;;;;17.88;5.15;;;;;;;;;;4929968;29;20115;-78
2021/11/07 13:49:01;;;;;;;21.25;6.07;;;;;;;;;;4933213;29;20497;-75
2021/11/07 13:51:32;;;;;;;19.45;5.97;;;;;;;;;;4932908;29;20048;-73
2021/11/07 13:54:04;;;;;;;19.23;5.65;;;;;;;;;;4933216;29;20048;-73
2021/11/07 13:56:33;;;;;;;25.35;5.97;;;;;;;;;;4933219;29;20466;-73
2021/11/07 13:59:00;;;;;;;25.95;6.18;;;;;;;;;;4931826;29;20509;-72
2021/11/07 14:01:31;;;;;;;22.35;5.97;;;;;;;;;;4932284;29;20111;-73
2021/11/07 14:03:59;;;;;;;27.65;5.45;;;;;;;;;;4931827;29;20141;-78
2021/11/07 14:06:37;;;;;;;26.58;6.60;;;;;;;;;;4916095;29;20043;-73
2021/11/07 14:09:06;;;;;;;21.67;6.32;;;;;;;;;;4932074;29;20083;-73
2021/11/07 14:11:34;;;;;;;19.42;6.05;;;;;;;;;;4933194;29;20045;-74
2021/11/07 14:14:03;;;;;;;21.30;5.75;;;;;;;;;;4933475;29;20048;-77
2021/11/07 14:16:31;;;;;;;22.23;7.00;;;;;;;;;;4931772;29;20526;-73
2021/11/07 14:19:00;;;;;;;17.25;5.90;;;;;;;;;;4931591;29;20505;-73
2021/11/07 14:21:30;;;;;;;16.60;5.18;;;;;;;;;;4963473;28;20043;-73
2021/11/07 14:24:06;;;;;;;22.58;5.90;;;;;;;;;;4971161;28;20506;-72
2021/11/07 14:26:43;;;;;;;18.63;6.22;;;;;;;;;;4954368;28;20545;-73
2021/11/07 14:29:15;;;;;;;19.67;6.05;;;;;;;;;;4974935;28;20101;-74
2021/11/07 14:32:13;;;;;;;16.50;5.05;;;;;;;;;;4974637;28;20047;-73
2021/11/07 14:34:57;;;;;;;18.70;5.95;;;;;;;;;;4974288;28;20522;-78
2021/11/07 14:40:07;;;;;;;21.45;5.72;;;;;;;;;;4956837;28;20137;-77
2021/11/07 14:42:54;;;;;;;22.85;7.05;;;;;;;;;;4974550;28;20105;-76
2021/11/07 14:45:39;;;;;;;20.05;6.50;;;;;;;;;;4939392;29;20134;-73
2021/11/07 14:53:41;;;;;;;23.83;7.18;;;;;;;;;;4955012;29;20058;-74
2021/11/07 14:58:51;;;;;;;22.65;6.90;;;;;;;;;;4954470;29;20067;-73
2021/11/07 15:06:44;;;;;;;24.80;6.78;;;;;;;;;;4954344;29;20035;-72
2021/11/07 15:09:25;;;;;;;28.75;7.05;;;;;;;;;;4937178;29;20043;-71
2021/11/07 15:12:22;;;;;;;23.17;6.88;;;;;;;;;;4946610;28;20042;-76
2021/11/07 15:17:54;;;;;;;26.85;7.28;;;;;;;;;;4975763;28;20089;-71
2021/11/07 15:20:49;;;;;;;19.83;7.00;;;;;;;;;;4975530;28;20079;-75
2021/11/07 15:23:29;;;;;;;28.45;7.18;;;;;;;;;;4975509;28;20102;-77
2021/11/07 15:25:59;;;;;;;22.73;6.70;;;;;;;;;;4975600;28;20150;-76
2021/11/07 15:28:28;;;;;;;24.63;6.75;;;;;;;;;;4975485;28;20049;-71
2021/11/07 15:30:57;;;;;;;27.05;6.65;;;;;;;;;;4975184;28;20505;-73
2021/11/07 15:33:24;;;;;;;22.08;7.13;;;;;;;;;;4941378;28;20139;-74
2021/11/07 15:35:53;;;;;;;23.10;7.32;;;;;;;;;;4972387;28;20043;-73
2021/11/07 15:38:23;;;;;;;24.85;7.63;;;;;;;;;;4952693;28;20420;-73
2021/11/07 15:40:55;;;;;;;17.90;6.95;;;;;;;;;;4941739;29;20145;-74
2021/11/07 15:43:24;;;;;;;17.33;7.10;;;;;;;;;;4955067;28;20043;-73
2021/11/07 15:46:05;;;;;;;18.80;6.63;;;;;;;;;;4955620;28;20613;-74
2021/11/07 15:48:46;;;;;;;20.00;7.10;;;;;;;;;;4969566;28;20052;-77
2021/11/07 15:54:07;;;;;;;27.98;7.30;;;;;;;;;;4972536;28;20170;-74
2021/11/07 16:05:01;;;;;;;26.90;8.85;;;;;;;;;;4972653;28;20049;-75
2021/11/07 16:07:35;;;;;;;19.38;7.32;;;;;;;;;;4973192;28;20041;-78
2021/11/07 16:13:05;;;;;;;27.02;8.35;;;;;;;;;;4918714;28;20039;-81
2021/11/07 16:15:44;;;;;;;28.83;8.98;;;;;;;;;;4973774;28;20070;-76
2021/11/07 16:18:15;;;;;;;26.52;8.75;;;;;;;;;;4972303;28;20057;-79
2021/11/07 16:20:44;;;;;;;28.38;9.00;;;;;;;;;;4954611;28;20129;-76
2021/11/07 16:23:12;;;;;;;27.35;9.15;;;;;;;;;;4972055;28;20051;-79
2021/11/07 16:25:42;;;;;;;26.33;8.65;;;;;;;;;;4954833;28;20055;-73
2021/11/07 16:28:10;;;;;;;25.85;8.07;;;;;;;;;;4955910;28;20050;-76
2021/11/07 16:30:39;;;;;;;26.95;7.80;;;;;;;;;;4976935;28;20053;-73
2021/11/07 16:33:24;;;;;;;22.08;7.95;;;;;;;;;;4954676;28;20061;-74
2021/11/07 16:38:39;;;;;;;24.55;7.80;;;;;;;;;;4971926;28;20505;-75
2021/11/07 16:41:26;;;;;;;23.10;7.80;;;;;;;;;;4972066;28;20061;-74
2021/11/07 16:43:56;;;;;;;21.67;7.95;;;;;;;;;;4971495;28;20046;-75
2021/11/07 16:46:27;;;;;;;23.15;8.15;;;;;;;;;;4955504;28;20411;-76
2021/11/07 16:48:56;;;;;;;23.15;7.78;;;;;;;;;;4970232;28;20408;-75
2021/11/07 16:51:30;;;;;;;25.10;8.02;;;;;;;;;;4940077;28;20125;-76
2021/11/07 16:54:00;;;;;;;28.17;8.63;;;;;;;;;;4954802;28;20600;-77
2021/11/07 16:56:31;;;;;;;28.15;8.32;;;;;;;;;;4972049;28;20054;-76
2021/11/07 17:01:50;;;;;;;27.98;10.07;;;;;;;;;;4972585;28;20039;-73
2021/11/07 17:04:23;;;;;;;27.17;8.00;;;;;;;;;;4954495;28;20051;-75
2021/11/07 17:07:08;;;;;;;27.85;9.05;;;;;;;;;;4971835;28;20166;-75
2021/11/07 17:09:44;;;;;;;28.88;8.70;;;;;;;;;;4972013;28;20323;-75
2021/11/07 17:12:20;;;;;;;26.00;8.48;;;;;;;;;;4954680;28;20089;-73
2021/11/07 17:14:53;;;;;;;30.90;8.40;;;;;;;;;;4938529;28;20051;-75
2021/11/07 17:17:31;;;;;;;33.58;9.50;;;;;;;;;;4954226;28;20132;-75
2021/11/07 17:20:08;;;;;;;25.77;8.35;;;;;;;;;;4970626;28;20057;-76
2021/11/07 17:22:53;;;;;;;30.02;8.82;;;;;;;;;;4974193;28;20051;-78
2021/11/07 17:25:30;;;;;;;34.10;8.85;;;;;;;;;;4956317;28;20109;-75
2021/11/07 17:30:34;;;;;;;28.35;9.32;;;;;;;;;;4971117;28;20067;-78
2021/11/07 17:35:57;;;;;;;30.50;9.00;;;;;;;;;;4971664;28;20555;-76
2021/11/07 17:38:37;;;;;;;28.45;9.43;;;;;;;;;;4954411;28;20500;-74
2021/11/07 17:54:45;;;;;;;25.50;9.20;;;;;;;;;;4953547;28;20054;-74
2021/11/07 17:57:16;;;;;;;40.25;9.70;;;;;;;;;;4971029;28;20070;-74
2021/11/07 17:59:43;;;;;;;29.67;9.40;;;;;;;;;;4959949;28;20044;-74
2021/11/07 18:02:13;;;;;;;29.35;9.52;;;;;;;;;;4938654;29;20039;-73
2021/11/07 18:04:43;;;;;;;34.45;10.52;;;;;;;;;;4957414;29;20067;-72
2021/11/07 18:07:26;;;;;;;29.30;9.98;;;;;;;;;;4939870;28;20134;-74
2021/11/07 18:09:59;;;;;;;30.33;10.95;;;;;;;;;;4957765;29;20051;-72
2021/11/07 18:12:28;;;;;;;32.17;11.88;;;;;;;;;;4940087;29;20078;-74